Terminal Aerodrome Forecast
Issued by NWS

Home | Current Version | Previous Version | Text Only | Print | Product List | Glossary On
Versions: 1 2 3 4 5 6 7 8 9 10 11 12 13 14 15 16 17 18 19 20
000
FTUS46 KSGX 271125
TAFCRQ
TAF
KCRQ 271125Z 2712/2812 VRB03KT 5SM BR OVC010
     FM271500 VRB04KT P6SM OVC015
     FM272000 25009KT P6SM BKN022
      TEMPO 2721/2801 SCT025
     FM280200 VRB04KT P6SM BKN012
     FM280900 VRB03KT 5SM BR OVC008=

USA.gov is the U.S. government's official web portal to all federal, state and local government web resources and services.